sensor_id;sensor_type;location;lat;lon;timestamp;pressure;altitude;pressure_sealevel;temperature;humidity
3590;BME280;1809;48.470;9.226;2023-11-19T00:00:25;156641.94;;;7.66;100.00
3590;BME280;1809;48.470;9.226;2023-11-19T00:02:51;156639.31;;;7.65;100.00
3590;BME280;1809;48.470;9.226;2023-11-19T00:05:16;156652.31;;;7.70;100.00
3590;BME280;1809;48.470;9.226;2023-11-19T00:07:41;156678.41;;;7.80;100.00
3590;BME280;1809;48.470;9.226;2023-11-19T00:10:12;156678.41;;;7.80;100.00
3590;BME280;1809;48.470;9.226;2023-11-19T00:12:43;156683.63;;;7.82;100.00
3590;BME280;1809;48.470;9.226;2023-11-19T00:15:10;156683.63;;;7.82;100.00
3590;BME280;1809;48.470;9.226;2023-11-19T00:17:44;156696.69;;;7.87;100.00
3590;BME280;1809;48.470;9.226;2023-11-19T00:20:22;156699.25;;;7.88;100.00
3590;BME280;1809;48.470;9.226;2023-11-19T00:22:48;156701.88;;;7.89;100.00
3590;BME280;1809;48.470;9.226;2023-11-19T00:25:16;156711.00;;;7.92;100.00
3590;BME280;1809;48.470;9.226;2023-11-19T00:27:42;156724.03;;;7.97;100.00
3590;BME280;1809;48.470;9.226;2023-11-19T00:30:10;156738.41;;;8.03;100.00
3590;BME280;1809;48.470;9.226;2023-11-19T00:32:36;156757.97;;;8.10;100.00
3590;BME280;1809;48.470;9.226;2023-11-19T00:35:04;156782.75;;;8.20;100.00
3590;BME280;1809;48.470;9.226;2023-11-19T00:37:30;156773.59;;;8.17;100.00
3590;BME280;1809;48.470;9.226;2023-11-19T00:39:55;156828.44;;;8.38;100.00
3590;BME280;1809;48.470;9.226;2023-11-19T00:42:24;156875.44;;;8.56;100.00
3590;BME280;1809;48.470;9.226;2023-11-19T00:44:50;157056.81;;;9.26;100.00
3590;BME280;1809;48.470;9.226;2023-11-19T00:47:15;157101.22;;;9.43;100.00
3590;BME280;1809;48.470;9.226;2023-11-19T00:49:41;157157.38;;;9.65;100.00
3590;BME280;1809;48.470;9.226;2023-11-19T00:52:08;157216.09;;;9.88;100.00
3590;BME280;1809;48.470;9.226;2023-11-19T00:54:33;157234.41;;;9.95;100.00
3590;BME280;1809;48.470;9.226;2023-11-19T00:56:59;157259.22;;;10.04;100.00
3590;BME280;1809;48.470;9.226;2023-11-19T00:59:26;157263.13;;;10.06;100.00
3590;BME280;1809;48.470;9.226;2023-11-19T01:01:53;157273.56;;;10.10;100.00
3590;BME280;1809;48.470;9.226;2023-11-19T01:04:19;157294.56;;;10.18;100.00
3590;BME280;1809;48.470;9.226;2023-11-19T01:06:45;157291.94;;;10.17;100.00
3590;BME280;1809;48.470;9.226;2023-11-19T01:09:10;157306.28;;;10.22;100.00
3590;BME280;1809;48.470;9.226;2023-11-19T01:11:35;157318.06;;;10.27;100.00
3590;BME280;1809;48.470;9.226;2023-11-19T01:14:01;157328.47;;;10.31;100.00
3590;BME280;1809;48.470;9.226;2023-11-19T01:16:27;157349.41;;;10.39;100.00
3590;BME280;1809;48.470;9.226;2023-11-19T01:18:52;157336.31;;;10.34;100.00
3590;BME280;1809;48.470;9.226;2023-11-19T01:21:18;157315.44;;;10.26;100.00
3590;BME280;1809;48.470;9.226;2023-11-19T01:23:44;157338.94;;;10.35;100.00
3590;BME280;1809;48.470;9.226;2023-11-19T01:26:10;157332.44;;;10.33;100.00
3590;BME280;1809;48.470;9.226;2023-11-19T01:28:39;157336.31;;;10.34;100.00
3590;BME280;1809;48.470;9.226;2023-11-19T01:31:05;157355.94;;;10.42;100.00
3590;BME280;1809;48.470;9.226;2023-11-19T01:33:36;157328.47;;;10.31;100.00
3590;BME280;1809;48.470;9.226;2023-11-19T01:36:01;157338.94;;;10.35;100.00
3590;BME280;1809;48.470;9.226;2023-11-19T01:38:27;157329.78;;;10.32;100.00
3590;BME280;1809;48.470;9.226;2023-11-19T01:40:58;157325.91;;;10.30;100.00
3590;BME280;1809;48.470;9.226;2023-11-19T01:43:34;157349.41;;;10.39;100.00
3590;BME280;1809;48.470;9.226;2023-11-19T01:46:01;157341.56;;;10.36;100.00
3590;BME280;1809;48.470;9.226;2023-11-19T01:48:28;157333.75;;;10.33;100.00
3590;BME280;1809;48.470;9.226;2023-11-19T01:50:53;157370.31;;;10.47;100.00
3590;BME280;1809;48.470;9.226;2023-11-19T01:53:19;157391.25;;;10.55;100.00
3590;BME280;1809;48.470;9.226;2023-11-19T01:55:48;157412.13;;;10.63;100.00
3590;BME280;1809;48.470;9.226;2023-11-19T01:58:15;157404.28;;;10.60;100.00
3590;BME280;1809;48.470;9.226;2023-11-19T02:00:41;157433.00;;;10.71;100.00
3590;BME280;1809;48.470;9.226;2023-11-19T02:03:07;157431.75;;;10.71;100.00
3590;BME280;1809;48.470;9.226;2023-11-19T02:05:33;157434.31;;;10.72;100.00
3590;BME280;1809;48.470;9.226;2023-11-19T02:08:00;157442.16;;;10.75;100.00
3590;BME280;1809;48.470;9.226;2023-11-19T02:10:26;157443.47;;;10.75;100.00
3590;BME280;1809;48.470;9.226;2023-11-19T02:12:52;157453.94;;;10.79;100.00
3590;BME280;1809;48.470;9.226;2023-11-19T02:15:17;157456.53;;;10.80;100.00
3590;BME280;1809;48.470;9.226;2023-11-19T02:17:47;157457.84;;;10.81;100.00
3590;BME280;1809;48.470;9.226;2023-11-19T02:20:12;157448.69;;;10.77;100.00
3590;BME280;1809;48.470;9.226;2023-11-19T02:22:40;157431.75;;;10.71;100.00
3590;BME280;1809;48.470;9.226;2023-11-19T02:25:17;157448.69;;;10.77;100.00
3590;BME280;1809;48.470;9.226;2023-11-19T02:30:16;157448.69;;;10.77;100.00
3590;BME280;1809;48.470;9.226;2023-11-19T02:32:42;157448.69;;;10.77;100.00
3590;BME280;1809;48.470;9.226;2023-11-19T02:35:08;157443.47;;;10.75;100.00
3590;BME280;1809;48.470;9.226;2023-11-19T02:37:34;157422.59;;;10.67;100.00
3590;BME280;1809;48.470;9.226;2023-11-19T02:39:59;157406.91;;;10.61;100.00
3590;BME280;1809;48.470;9.226;2023-11-19T02:42:34;157404.28;;;10.60;100.00
3590;BME280;1809;48.470;9.226;2023-11-19T02:45:00;157418.66;;;10.66;100.00
3590;BME280;1809;48.470;9.226;2023-11-19T02:47:26;157433.00;;;10.71;100.00
3590;BME280;1809;48.470;9.226;2023-11-19T02:49:55;157433.00;;;10.71;100.00
3590;BME280;1809;48.470;9.226;2023-11-19T02:52:21;157416.03;;;10.65;100.00
3590;BME280;1809;48.470;9.226;2023-11-19T02:54:47;157418.66;;;10.66;100.00
3590;BME280;1809;48.470;9.226;2023-11-19T02:57:12;157435.63;;;10.72;100.00
3590;BME280;1809;48.470;9.226;2023-11-19T02:59:40;157443.47;;;10.75;100.00
3590;BME280;1809;48.470;9.226;2023-11-19T03:02:08;157450.00;;;10.78;100.00
3590;BME280;1809;48.470;9.226;2023-11-19T03:04:38;157425.16;;;10.68;100.00
3590;BME280;1809;48.470;9.226;2023-11-19T03:07:05;157412.13;;;10.63;100.00
3590;BME280;1809;48.470;9.226;2023-11-19T03:09:30;157419.97;;;10.66;100.00
3590;BME280;1809;48.470;9.226;2023-11-19T03:11:56;157406.91;;;10.61;100.00
3590;BME280;1809;48.470;9.226;2023-11-19T03:14:22;157422.59;;;10.67;100.00
3590;BME280;1809;48.470;9.226;2023-11-19T03:16:48;157452.63;;;10.79;100.00
3590;BME280;1809;48.470;9.226;2023-11-19T03:19:13;157453.94;;;10.79;100.00
3590;BME280;1809;48.470;9.226;2023-11-19T03:21:40;157473.53;;;10.87;100.00
3590;BME280;1809;48.470;9.226;2023-11-19T03:24:05;157467.00;;;10.85;100.00
3590;BME280;1809;48.470;9.226;2023-11-19T03:26:32;157474.84;;;10.88;100.00
3590;BME280;1809;48.470;9.226;2023-11-19T03:28:59;157495.78;;;10.96;100.00
3590;BME280;1809;48.470;9.226;2023-11-19T03:31:24;157472.22;;;10.87;100.00
3590;BME280;1809;48.470;9.226;2023-11-19T03:33:50;157478.78;;;10.89;100.00
3590;BME280;1809;48.470;9.226;2023-11-19T03:36:15;157473.53;;;10.87;100.00
3590;BME280;1809;48.470;9.226;2023-11-19T03:38:41;157460.47;;;10.82;100.00
3590;BME280;1809;48.470;9.226;2023-11-19T03:41:14;157467.00;;;10.85;100.00
3590;BME280;1809;48.470;9.226;2023-11-19T03:43:40;157457.84;;;10.81;100.00
3590;BME280;1809;48.470;9.226;2023-11-19T03:46:21;157478.78;;;10.89;100.00
3590;BME280;1809;48.470;9.226;2023-11-19T03:48:50;157495.78;;;10.96;100.00
3590;BME280;1809;48.470;9.226;2023-11-19T03:51:16;157486.63;;;10.92;100.00
3590;BME280;1809;48.470;9.226;2023-11-19T03:53:43;157461.78;;;10.83;100.00
3590;BME280;1809;48.470;9.226;2023-11-19T03:56:09;157461.78;;;10.83;100.00
3590;BME280;1809;48.470;9.226;2023-11-19T03:58:38;157478.78;;;10.89;100.00
3590;BME280;1809;48.470;9.226;2023-11-19T04:01:11;157481.38;;;10.90;100.00
3590;BME280;1809;48.470;9.226;2023-11-19T04:03:38;157485.31;;;10.92;100.00
3590;BME280;1809;48.470;9.226;2023-11-19T04:06:04;157498.38;;;10.97;100.00
3590;BME280;1809;48.470;9.226;2023-11-19T04:08:30;157502.31;;;10.98;100.00
3590;BME280;1809;48.470;9.226;2023-11-19T04:10:55;157506.22;;;11.00;100.00
3590;BME280;1809;48.470;9.226;2023-11-19T04:13:20;157519.31;;;11.05;100.00
3590;BME280;1809;48.470;9.226;2023-11-19T04:15:46;157514.06;;;11.03;100.00
3590;BME280;1809;48.470;9.226;2023-11-19T04:18:11;157514.06;;;11.03;100.00
3590;BME280;1809;48.470;9.226;2023-11-19T04:20:37;157529.72;;;11.09;100.00
3590;BME280;1809;48.470;9.226;2023-11-19T04:23:02;157532.38;;;11.10;100.00
3590;BME280;1809;48.470;9.226;2023-11-19T04:25:28;157546.72;;;11.15;100.00
3590;BME280;1809;48.470;9.226;2023-11-19T04:27:54;157541.53;;;11.13;100.00
3590;BME280;1809;48.470;9.226;2023-11-19T04:30:19;157548.06;;;11.16;100.00
3590;BME280;1809;48.470;9.226;2023-11-19T04:32:45;157548.06;;;11.16;100.00
3590;BME280;1809;48.470;9.226;2023-11-19T04:35:10;157545.41;;;11.15;100.00
3590;BME280;1809;48.470;9.226;2023-11-19T04:37:36;157565.03;;;11.22;100.00
3590;BME280;1809;48.470;9.226;2023-11-19T04:40:03;157544.16;;;11.14;100.00
3590;BME280;1809;48.470;9.226;2023-11-19T04:42:28;157552.00;;;11.17;100.00
3590;BME280;1809;48.470;9.226;2023-11-19T04:44:55;157559.84;;;11.20;100.00
3590;BME280;1809;48.470;9.226;2023-11-19T04:47:20;157563.72;;;11.22;100.00
3590;BME280;1809;48.470;9.226;2023-11-19T04:49:46;157553.25;;;11.18;100.00
3590;BME280;1809;48.470;9.226;2023-11-19T04:52:11;157574.22;;;11.26;100.00
3590;BME280;1809;48.470;9.226;2023-11-19T04:54:43;157561.09;;;11.21;100.00
3590;BME280;1809;48.470;9.226;2023-11-19T04:57:09;157565.03;;;11.22;100.00
3590;BME280;1809;48.470;9.226;2023-11-19T04:59:38;157574.22;;;11.26;100.00
3590;BME280;1809;48.470;9.226;2023-11-19T05:02:04;157582.03;;;11.29;100.00
3590;BME280;1809;48.470;9.226;2023-11-19T05:04:30;157592.53;;;11.33;100.00
3590;BME280;1809;48.470;9.226;2023-11-19T05:06:56;157587.25;;;11.31;100.00
3590;BME280;1809;48.470;9.226;2023-11-19T05:09:22;157608.22;;;11.39;100.00
3590;BME280;1809;48.470;9.226;2023-11-19T05:11:48;157599.06;;;11.36;100.00
3590;BME280;1809;48.470;9.226;2023-11-19T05:14:13;157613.44;;;11.41;100.00
3590;BME280;1809;48.470;9.226;2023-11-19T05:16:40;157605.59;;;11.38;100.00
3590;BME280;1809;48.470;9.226;2023-11-19T05:19:06;157618.63;;;11.43;100.00
3590;BME280;1809;48.470;9.226;2023-11-19T05:21:32;157618.63;;;11.43;100.00
3590;BME280;1809;48.470;9.226;2023-11-19T05:23:58;157636.97;;;11.50;100.00
3590;BME280;1809;48.470;9.226;2023-11-19T05:26:24;157651.31;;;11.56;100.00
3590;BME280;1809;48.470;9.226;2023-11-19T05:28:50;157657.84;;;11.58;100.00
3590;BME280;1809;48.470;9.226;2023-11-19T05:31:16;157656.59;;;11.58;100.00
3590;BME280;1809;48.470;9.226;2023-11-19T05:33:42;157664.44;;;11.61;100.00
3590;BME280;1809;48.470;9.226;2023-11-19T05:36:08;157676.19;;;11.65;100.00
3590;BME280;1809;48.470;9.226;2023-11-19T05:38:36;157680.13;;;11.67;100.00
3590;BME280;1809;48.470;9.226;2023-11-19T05:41:02;157664.44;;;11.61;100.00
3590;BME280;1809;48.470;9.226;2023-11-19T05:43:28;157670.97;;;11.63;100.00
3590;BME280;1809;48.470;9.226;2023-11-19T05:45:54;157676.19;;;11.65;100.00
3590;BME280;1809;48.470;9.226;2023-11-19T05:48:19;157674.88;;;11.65;100.00
3590;BME280;1809;48.470;9.226;2023-11-19T05:50:44;157698.44;;;11.74;100.00
3590;BME280;1809;48.470;9.226;2023-11-19T05:53:11;157694.56;;;11.72;100.00
3590;BME280;1809;48.470;9.226;2023-11-19T05:55:38;157702.41;;;11.75;100.00
3590;BME280;1809;48.470;9.226;2023-11-19T05:58:11;157669.66;;;11.63;100.00
3590;BME280;1809;48.470;9.226;2023-11-19T06:00:38;157702.41;;;11.75;100.00
3590;BME280;1809;48.470;9.226;2023-11-19T06:03:04;157678.81;;;11.66;100.00
3590;BME280;1809;48.470;9.226;2023-11-19T06:05:30;157711.56;;;11.79;100.00
3590;BME280;1809;48.470;9.226;2023-11-19T06:07:55;157699.75;;;11.74;100.00
3590;BME280;1809;48.470;9.226;2023-11-19T06:10:22;157711.56;;;11.79;100.00
3590;BME280;1809;48.470;9.226;2023-11-19T06:12:54;157714.16;;;11.80;100.00
3590;BME280;1809;48.470;9.226;2023-11-19T06:15:22;157722.03;;;11.83;100.00
3590;BME280;1809;48.470;9.226;2023-11-19T06:17:47;157708.94;;;11.78;100.00
3590;BME280;1809;48.470;9.226;2023-11-19T06:20:12;157725.94;;;11.84;100.00
3590;BME280;1809;48.470;9.226;2023-11-19T06:22:39;157728.56;;;11.85;100.00
3590;BME280;1809;48.470;9.226;2023-11-19T06:25:07;157735.09;;;11.88;100.00
3590;BME280;1809;48.470;9.226;2023-11-19T06:27:33;157729.88;;;11.86;100.00
3590;BME280;1809;48.470;9.226;2023-11-19T06:29:58;157744.25;;;11.92;100.00
3590;BME280;1809;48.470;9.226;2023-11-19T06:32:24;157741.63;;;11.91;100.00
3590;BME280;1809;48.470;9.226;2023-11-19T06:34:49;157753.44;;;11.95;100.00
3590;BME280;1809;48.470;9.226;2023-11-19T06:37:14;157759.97;;;11.98;100.00
3590;BME280;1809;48.470;9.226;2023-11-19T06:39:40;157769.13;;;12.01;100.00
3590;BME280;1809;48.470;9.226;2023-11-19T06:42:06;157775.56;;;12.05;100.00
3590;BME280;1809;48.470;9.226;2023-11-19T06:44:31;157791.25;;;12.11;100.00
3590;BME280;1809;48.470;9.226;2023-11-19T06:46:56;157434.31;;;12.08;100.00
3590;BME280;1809;48.470;9.226;2023-11-19T06:49:22;157099.59;;;12.13;100.00
3590;BME280;1809;48.470;9.226;2023-11-19T06:51:48;156387.31;;;12.08;100.00
3590;BME280;1809;48.470;9.226;2023-11-19T06:54:13;156397.63;;;12.12;100.00
3590;BME280;1809;48.470;9.226;2023-11-19T06:56:39;156744.06;;;12.11;100.00
3590;BME280;1809;48.470;9.226;2023-11-19T06:59:04;157099.59;;;12.13;100.00
3590;BME280;1809;48.470;9.226;2023-11-19T07:01:34;157089.16;;;12.09;100.00
3590;BME280;1809;48.470;9.226;2023-11-19T07:04:00;156733.66;;;12.07;100.00
3590;BME280;1809;48.470;9.226;2023-11-19T07:06:27;156728.47;;;12.05;100.00
3590;BME280;1809;48.470;9.226;2023-11-19T07:08:53;157095.66;;;12.12;100.00
3590;BME280;1809;48.470;9.226;2023-11-19T07:11:18;157087.84;;;12.09;100.00
3590;BME280;1809;48.470;9.226;2023-11-19T07:13:43;157423.88;;;12.04;100.00
3590;BME280;1809;48.470;9.226;2023-11-19T07:16:11;157780.78;;;12.07;100.00
3590;BME280;1809;48.470;9.226;2023-11-19T07:18:36;157775.56;;;12.05;100.00
3590;BME280;1809;48.470;9.226;2023-11-19T07:21:03;157775.56;;;12.05;100.00
3590;BME280;1809;48.470;9.226;2023-11-19T07:23:29;157780.78;;;12.07;100.00
3590;BME280;1809;48.470;9.226;2023-11-19T07:25:54;157791.25;;;12.11;100.00
3590;BME280;1809;48.470;9.226;2023-11-19T07:28:19;157772.91;;;12.04;100.00
3590;BME280;1809;48.470;9.226;2023-11-19T07:30:45;157776.81;;;12.05;100.00
3590;BME280;1809;48.470;9.226;2023-11-19T07:33:10;157788.63;;;12.10;100.00
3590;BME280;1809;48.470;9.226;2023-11-19T07:35:35;157808.22;;;12.17;100.00
3590;BME280;1809;48.470;9.226;2023-11-19T07:38:01;157812.16;;;12.19;100.00
3590;BME280;1809;48.470;9.226;2023-11-19T07:40:26;157480.00;;;12.25;100.00
3590;BME280;1809;48.470;9.226;2023-11-19T07:42:51;156796.00;;;12.31;100.00
3590;BME280;1809;48.470;9.226;2023-11-19T07:45:17;155068.81;;;12.38;100.00
3590;BME280;1809;48.470;9.226;2023-11-19T07:47:43;154363.19;;;12.35;100.00
3590;BME280;1809;48.470;9.226;2023-11-19T07:50:11;153687.06;;;12.44;100.00
3590;BME280;1809;48.470;9.226;2023-11-19T07:52:39;152961.47;;;12.32;100.00
3590;BME280;1809;48.470;9.226;2023-11-19T07:55:05;152975.41;;;12.38;100.00
3590;BME280;1809;48.470;9.226;2023-11-19T07:57:30;152975.41;;;12.38;100.00
3590;BME280;1809;48.470;9.226;2023-11-19T07:59:57;152988.06;;;12.43;100.00
3590;BME280;1809;48.470;9.226;2023-11-19T08:02:22;152662.00;;;12.52;100.00
3590;BME280;1809;48.470;9.226;2023-11-19T08:04:49;151276.91;;;12.56;100.00
3590;BME280;1809;48.470;9.226;2023-11-19T08:07:17;149526.25;;;12.53;100.00
3590;BME280;1809;48.470;9.226;2023-11-19T08:09:42;149187.63;;;12.57;100.00
3590;BME280;1809;48.470;9.226;2023-11-19T08:12:08;148475.88;;;12.51;100.00
3590;BME280;1809;48.470;9.226;2023-11-19T08:14:34;148132.34;;;12.53;100.00
3590;BME280;1809;48.470;9.226;2023-11-19T08:16:59;147411.19;;;12.43;100.00
3590;BME280;1809;48.470;9.226;2023-11-19T08:19:25;147089.72;;;12.54;100.00
3590;BME280;1809;48.470;9.226;2023-11-19T08:21:50;147083.59;;;12.52;100.00
3590;BME280;1809;48.470;9.226;2023-11-19T08:24:15;146404.03;;;12.59;100.00
3590;BME280;1809;48.470;9.226;2023-11-19T08:26:40;144651.13;;;12.54;100.00
3590;BME280;1809;48.470;9.226;2023-11-19T08:29:06;143940.78;;;12.48;100.00
3590;BME280;1809;48.470;9.226;2023-11-19T08:31:32;143608.25;;;12.54;100.00
3590;BME280;1809;48.470;9.226;2023-11-19T08:33:57;143949.13;;;12.51;100.00
3590;BME280;1809;48.470;9.226;2023-11-19T08:36:22;142602.16;;;12.70;100.00
3590;BME280;1809;48.470;9.226;2023-11-19T08:38:48;140151.06;;;12.63;100.00
3590;BME280;1809;48.470;9.226;2023-11-19T08:41:13;138099.72;;;12.78;100.00
3590;BME280;1809;48.470;9.226;2023-11-19T08:43:38;136031.72;;;12.86;100.00
3590;BME280;1809;48.470;9.226;2023-11-19T08:46:09;133610.59;;;12.90;100.00
3590;BME280;1809;48.470;9.226;2023-11-19T08:48:34;131568.19;;;13.09;100.00
3590;BME280;1809;48.470;9.226;2023-11-19T08:51:00;128806.22;;;13.16;100.00
3590;BME280;1809;48.470;9.226;2023-11-19T08:53:25;126384.16;;;13.18;100.00
3590;BME280;1809;48.470;9.226;2023-11-19T08:55:50;126030.25;;;13.15;100.00
3590;BME280;1809;48.470;9.226;2023-11-19T08:58:16;125331.97;;;13.12;100.00
3590;BME280;1809;48.470;9.226;2023-11-19T09:00:41;124639.03;;;13.12;100.00
3590;BME280;1809;48.470;9.226;2023-11-19T09:03:06;121516.41;;;13.09;100.00
3590;BME280;1809;48.470;9.226;2023-11-19T09:05:33;121861.56;;;13.09;100.00
3590;BME280;1809;48.470;9.226;2023-11-19T09:07:59;120843.16;;;13.19;100.00
3590;BME280;1809;48.470;9.226;2023-11-19T09:10:24;120178.66;;;13.33;100.00
3590;BME280;1809;48.470;9.226;2023-11-19T09:12:49;116384.88;;;13.39;100.00
3590;BME280;1809;48.470;9.226;2023-11-19T09:15:14;112659.19;;;13.80;100.00
3590;BME280;1809;48.470;9.226;2023-11-19T09:17:40;103719.66;;;14.01;100.00
3590;BME280;1809;48.470;9.226;2023-11-19T09:20:06;94403.38;;;13.90;100.00
3590;BME280;1809;48.470;9.226;2023-11-19T09:22:32;89598.06;;;13.94;100.00
3590;BME280;1809;48.470;9.226;2023-11-19T09:24:58;89590.72;;;13.89;100.00
3590;BME280;1809;48.470;9.226;2023-11-19T09:27:25;91654.81;;;13.91;100.00
3590;BME280;1809;48.470;9.226;2023-11-19T09:29:51;89920.94;;;13.80;100.00
3590;BME280;1809;48.470;9.226;2023-11-19T09:32:22;99548.50;;;13.80;100.00
3590;BME280;1809;48.470;9.226;2023-11-19T09:34:47;101675.97;;;14.17;100.00
3590;BME280;1809;48.470;9.226;2023-11-19T09:37:13;94810.84;;;14.32;100.00
3590;BME280;1809;48.470;9.226;2023-11-19T09:39:38;91405.28;;;14.55;100.00
3590;BME280;1809;48.470;9.226;2023-11-19T09:42:04;85209.88;;;14.48;100.00
3590;BME280;1809;48.470;9.226;2023-11-19T09:44:29;82125.59;;;14.51;100.00
3590;BME280;1809;48.470;9.226;2023-11-19T09:46:55;77690.84;;;14.68;100.00
3590;BME280;1809;48.470;9.226;2023-11-19T09:49:26;69490.34;;;14.80;100.00
3590;BME280;1809;48.470;9.226;2023-11-19T09:51:52;66087.44;;;14.94;100.00
3590;BME280;1809;48.470;9.226;2023-11-19T09:54:17;53830.44;;;15.17;100.00
3590;BME280;1809;48.470;9.226;2023-11-19T09:56:43;39216.63;;;15.14;100.00
3590;BME280;1809;48.470;9.226;2023-11-19T09:59:09;34808.25;;;15.07;100.00
3590;BME280;1809;48.470;9.226;2023-11-19T10:01:37;35147.41;;;15.08;100.00
3590;BME280;1809;48.470;9.226;2023-11-19T10:04:03;31423.53;;;15.05;100.00
3590;BME280;1809;48.470;9.226;2023-11-19T10:06:29;41243.25;;;15.01;100.00
3590;BME280;1809;48.470;9.226;2023-11-19T10:08:54;43623.28;;;15.08;100.00
3590;BME280;1809;48.470;9.226;2023-11-19T10:11:20;38875.09;;;15.10;100.00
3590;BME280;1809;48.470;9.226;2023-11-19T10:13:46;41244.91;;;15.03;100.00
3590;BME280;1809;48.470;9.226;2023-11-19T10:16:13;36834.09;;;14.96;100.00
3590;BME280;1809;48.470;9.226;2023-11-19T10:18:49;36833.50;;;14.95;100.00
3590;BME280;1809;48.470;9.226;2023-11-19T10:21:17;39205.63;;;14.96;100.00
3590;BME280;1809;48.470;9.226;2023-11-19T10:23:56;38533.03;;;15.04;100.00
3590;BME280;1809;48.470;9.226;2023-11-19T10:26:25;36504.75;;;15.13;100.00
3590;BME280;1809;48.470;9.226;2023-11-19T10:28:51;31094.75;;;15.25;100.00
3590;BME280;1809;48.470;9.226;2023-11-19T10:31:17;20965.81;;;15.38;100.00
3590;BME280;1809;48.470;9.226;2023-11-19T10:33:46;11201.66;;;15.62;100.00
3590;BME280;1809;48.470;9.226;2023-11-19T10:36:13;7835.56;;;15.35;100.00
3590;BME280;1809;48.470;9.226;2023-11-19T10:38:39;5484.41;;;15.33;100.00
3590;BME280;1809;48.470;9.226;2023-11-19T10:41:05;7498.97;;;15.29;100.00
3590;BME280;1809;48.470;9.226;2023-11-19T10:43:45;13553.31;;;15.40;100.00
3590;BME280;1809;48.470;9.226;2023-11-19T10:46:11;9851.75;;;15.33;100.00
3590;BME280;1809;48.470;9.226;2023-11-19T10:48:37;21305.34;;;15.44;100.00
3590;BME280;1809;48.470;9.226;2023-11-19T10:51:04;11197.84;;;15.39;100.00
3590;BME280;1809;48.470;9.226;2023-11-19T10:53:35;14562.91;;;15.39;100.00
3590;BME280;1809;48.470;9.226;2023-11-19T10:56:02;16922.53;;;15.46;100.00
3590;BME280;1809;48.470;9.226;2023-11-19T10:58:32;16922.00;;;15.44;100.00
3590;BME280;1809;48.470;9.226;2023-11-19T11:01:01;16920.28;;;15.38;100.00
3590;BME280;1809;48.470;9.226;2023-11-19T11:03:36;17255.59;;;15.32;100.00
3590;BME280;1809;48.470;9.226;2023-11-19T11:06:04;16580.28;;;15.26;100.00
3590;BME280;1809;48.470;9.226;2023-11-19T11:08:30;17591.44;;;15.28;100.00
3590;BME280;1809;48.470;9.226;2023-11-19T11:10:56;16578.47;;;15.19;100.00
3590;BME280;1809;48.470;9.226;2023-11-19T11:13:24;24668.78;;;15.13;100.00
3590;BME280;1809;48.470;9.226;2023-11-19T11:15:50;32107.97;;;15.21;100.00
3590;BME280;1809;48.470;9.226;2023-11-19T11:18:16;36168.03;;;15.16;100.00
3590;BME280;1809;48.470;9.226;2023-11-19T11:20:44;37852.22;;;14.99;100.00
3590;BME280;1809;48.470;9.226;2023-11-19T11:29:03;59246.56;;;14.78;100.00
3590;BME280;1809;48.470;9.226;2023-11-19T11:32:00;66412.94;;;14.79;100.00
3590;BME280;1809;48.470;9.226;2023-11-19T11:39:42;87615.25;;;14.49;100.00
3590;BME280;1809;48.470;9.226;2023-11-19T11:50:12;113471.63;;;14.46;100.00
3590;BME280;1809;48.470;9.226;2023-11-19T11:58:18;106305.28;;;15.00;100.00
3590;BME280;1809;48.470;9.226;2023-11-19T12:00:47;97009.63;;;15.17;100.00
3590;BME280;1809;48.470;9.226;2023-11-19T12:03:12;91169.94;;;15.29;100.00
3590;BME280;1809;48.470;9.226;2023-11-19T12:05:41;81227.63;;;15.51;100.00
3590;BME280;1809;48.470;9.226;2023-11-19T12:08:07;62059.50;;;15.64;100.00
3590;BME280;1809;48.470;9.226;2023-11-19T12:10:49;40604.38;;;15.62;100.00
3590;BME280;1809;48.470;9.226;2023-11-19T12:13:16;32126.69;;;15.58;100.00
3590;BME280;1809;48.470;9.226;2023-11-19T12:18:24;15573.59;;;15.41;100.00
3590;BME280;1809;48.470;9.226;2023-11-19T12:20:51;20293.75;;;15.46;100.00
3590;BME280;1809;48.470;9.226;2023-11-19T12:23:17;24347.00;;;15.54;100.00
3590;BME280;1809;48.470;9.226;2023-11-19T12:25:42;14230.84;;;15.60;100.00
3590;BME280;1809;48.470;9.226;2023-11-19T12:28:12;2800.47;;;15.57;100.00
3590;BME280;1809;48.470;9.226;2023-11-19T12:30:38;-2313.25;;;15.57;100.00
3590;BME280;1809;48.470;9.226;2023-11-19T12:33:10;1458.31;;;15.50;100.00
3590;BME280;1809;48.470;9.226;2023-11-19T12:35:43;1458.28;;;15.48;100.00
3590;BME280;1809;48.470;9.226;2023-11-19T12:38:22;-9846.78;;;15.61;100.00
3590;BME280;1809;48.470;9.226;2023-11-19T12:41:02;-14854.25;;;15.58;100.00
3590;BME280;1809;48.470;9.226;2023-11-19T12:43:28;-16599.78;;;15.47;100.00
3590;BME280;1809;48.470;9.226;2023-11-19T12:45:53;-16599.22;;;15.45;100.00
3590;BME280;1809;48.470;9.226;2023-11-19T12:48:19;-16600.34;;;15.49;100.00
3590;BME280;1809;48.470;9.226;2023-11-19T12:50:54;-16602.03;;;15.55;100.00
3590;BME280;1809;48.470;9.226;2023-11-19T12:53:22;-16604.25;;;15.63;100.00
3590;BME280;1809;48.470;9.226;2023-11-19T12:55:48;-16600.75;;;15.50;100.00
3590;BME280;1809;48.470;9.226;2023-11-19T12:58:33;-16600.06;;;15.48;100.00
3590;BME280;1809;48.470;9.226;2023-11-19T13:01:01;-16602.03;;;15.55;100.00
3590;BME280;1809;48.470;9.226;2023-11-19T13:03:31;-16605.81;;;15.69;100.00
3590;BME280;1809;48.470;9.226;2023-11-19T13:06:03;-16609.88;;;15.83;100.00
3590;BME280;1809;48.470;9.226;2023-11-19T13:08:35;-16606.09;;;15.70;100.00
3590;BME280;1809;48.470;9.226;2023-11-19T13:11:03;-16604.41;;;15.64;100.00
3590;BME280;1809;48.470;9.226;2023-11-19T13:13:28;-16600.91;;;15.51;100.00
3590;BME280;1809;48.470;9.226;2023-11-19T13:16:01;-16601.47;;;15.53;100.00
3590;BME280;1809;48.470;9.226;2023-11-19T13:18:28;-16602.88;;;15.58;100.00
3590;BME280;1809;48.470;9.226;2023-11-19T13:20:53;-16602.31;;;15.56;100.00
3590;BME280;1809;48.470;9.226;2023-11-19T13:23:22;-16600.91;;;15.51;100.00
3590;BME280;1809;48.470;9.226;2023-11-19T13:25:47;-16601.31;;;15.52;100.00
3590;BME280;1809;48.470;9.226;2023-11-19T13:28:14;-16601.31;;;15.52;100.00
3590;BME280;1809;48.470;9.226;2023-11-19T13:30:39;-16604.25;;;15.63;100.00